Terminal Aerodrome Forecast
Issued by NWS

Home | Current Version | Previous Version | Text Only | Print | Product List | Glossary On
Versions: 1 2 3 4 5 6 7 8 9 10 11 12 13 14 15 16 17 18 19 20 21 22 23 24 25 26 27 28 29 30 31
000
FTUS42 KCAE 042300
TAFOGB
TAF
KOGB 042338Z 0500/0524 21008KT P6SM BKN080
     FM050900 23008KT 4SM BR OVC003
     FM051500 23012G20KT P6SM OVC015
     FM051900 27012G20KT 4SM -SHRA OVC025
     FM052300 34015KT 6SM -RA OVC015=

USA.gov is the U.S. government's official web portal to all federal, state and local government web resources and services.